Terminal Aerodrome Forecast
Issued by NWS

Home | Current Version | Previous Version | Text Only | Print | Product List | Glossary Off
Versions: 1 2 3 4 5 6 7 8 9 10 11 12 13 14

612
FTUS42 KMHX 181744
TAFOAJ
TAF
KOAJ 181744Z 1818/1918 35005KT P6SM FEW023 OVC035
     FM190800 33007KT P6SM OVC008
     FM191400 32006KT P6SM BKN015
      AMD LTD TO CLD VIS AND WIND=

USA.gov is the U.S. government's official web portal to all federal, state and local government web resources and services.